Time;durP1;ratioP1;P1;durP2;ratioP2;P2;SDS_P1;SDS_P2;PMS_P1;PMS_P2;Temp;Humidity;BMP_temperature;BMP_pressure;BME280_temperature;BME280_humidity;BME280_pressure;Samples;Min_cycle;Max_cycle;Signal;HPM_P1;HPM_P2
2022/09/02 00:01:24;;;;;;;14.43;9.77;;;;;;;24.24;89.62;99111.84;5013779;28;20197;-69
2022/09/02 00:03:55;;;;;;;11.00;9.93;;;;;;;24.15;89.33;99105.47;5014117;28;20677;-68
2022/09/02 00:06:22;;;;;;;12.67;10.07;;;;;;;24.07;88.27;99108.84;5014175;28;20186;-68
2022/09/02 00:08:49;;;;;;;15.77;11.20;;;;;;;24.05;88.66;99100.16;5014857;28;20223;-68
2022/09/02 00:11:18;;;;;;;13.53;10.23;;;;;;;24.01;88.58;99107.28;5014252;28;20251;-68
2022/09/02 00:13:46;;;;;;;13.10;10.27;;;;;;;23.87;89.35;99095.50;5014274;28;20259;-68
2022/09/02 00:16:13;;;;;;;15.57;10.40;;;;;;;23.95;89.11;99094.91;5014232;28;20258;-68
2022/09/02 00:18:42;;;;;;;12.00;10.50;;;;;;;24.04;89.15;99093.13;5013893;28;20201;-68
2022/09/02 00:21:12;;;;;;;12.30;10.97;;;;;;;23.99;89.63;99103.25;4994189;28;20732;-69
2022/09/02 00:23:40;;;;;;;12.23;10.97;;;;;;;24.03;90.19;99102.38;4994161;28;20205;-69
2022/09/02 00:26:07;;;;;;;12.40;10.00;;;;;;;23.97;90.92;99092.69;4994242;28;20621;-69
2022/09/02 00:28:34;;;;;;;13.07;10.33;;;;;;;23.98;91.32;99098.94;4994183;28;20233;-68
2022/09/02 00:31:01;;;;;;;11.10;9.70;;;;;;;24.05;91.18;99100.16;4994633;28;20229;-68
2022/09/02 00:33:28;;;;;;;11.63;10.03;;;;;;;24.03;92.01;99096.13;4994146;28;20202;-68
2022/09/02 00:35:55;;;;;;;12.87;10.17;;;;;;;24.03;92.19;99096.97;4994135;28;20224;-68
2022/09/02 00:38:23;;;;;;;10.77;9.60;;;;;;;24.09;91.88;99095.78;4993390;28;20200;-68
2022/09/02 00:40:50;;;;;;;11.80;10.70;;;;;;;24.08;92.00;99098.78;4994029;28;20748;-68
2022/09/02 00:43:24;;;;;;;11.87;10.40;;;;;;;23.96;93.23;99096.50;4994167;28;20198;-68
2022/09/02 00:45:51;;;;;;;11.73;10.37;;;;;;;24.06;92.82;99095.56;4993542;28;20197;-68
2022/09/02 00:48:18;;;;;;;11.83;10.80;;;;;;;24.04;93.49;99093.13;4994010;28;20726;-68
2022/09/02 00:50:45;;;;;;;13.13;10.67;;;;;;;24.10;93.61;99091.94;4993591;28;20208;-68
2022/09/02 00:53:13;;;;;;;15.50;10.57;;;;;;;24.14;93.96;99086.75;4993677;28;20666;-68
2022/09/02 00:55:46;;;;;;;11.53;10.47;;;;;;;24.12;93.90;99100.63;4993435;28;20293;-68
2022/09/02 00:58:19;;;;;;;14.67;11.00;;;;;;;24.11;94.67;99099.00;4994365;28;20251;-68
2022/09/02 01:00:48;;;;;;;13.73;11.77;;;;;;;23.85;97.06;99096.91;4993481;28;20658;-69
2022/09/02 01:03:18;;;;;;;13.73;11.63;;;;;;;23.84;97.62;99097.97;4993927;28;20284;-68
2022/09/02 01:05:48;;;;;;;13.77;12.30;;;;;;;23.82;98.55;99092.06;4993963;28;20245;-68
2022/09/02 01:08:18;;;;;;;14.37;12.87;;;;;;;23.90;98.59;99094.13;4993721;28;20302;-68
2022/09/02 01:10:48;;;;;;;13.37;12.10;;;;;;;23.97;98.43;99098.09;4993414;28;20225;-68
2022/09/02 01:13:18;;;;;;;15.47;13.87;;;;;;;23.98;98.68;99088.88;4993574;28;20554;-68
2022/09/02 01:15:47;;;;;;;15.20;13.60;;;;;;;24.04;99.06;99093.13;4993328;28;20704;-68
2022/09/02 01:18:20;;;;;;;17.97;12.43;;;;;;;24.11;99.01;99098.19;4993178;28;20739;-68
2022/09/02 01:20:47;;;;;;;15.20;13.27;;;;;;;24.00;100.00;99099.44;4993536;28;20185;-68
2022/09/02 01:23:16;;;;;;;19.97;13.63;;;;;;;23.94;100.00;99092.47;4993643;28;20248;-68
2022/09/02 01:25:44;;;;;;;17.23;14.10;;;;;;;23.79;100.00;99085.31;4993135;28;20752;-68
2022/09/02 01:28:13;;;;;;;16.63;14.13;;;;;;;23.85;100.00;99084.13;4993081;28;20284;-68
2022/09/02 01:30:43;;;;;;;15.53;14.07;;;;;;;23.85;100.00;99084.13;5003895;28;20231;-69
2022/09/02 01:33:11;;;;;;;16.87;14.10;;;;;;;23.88;100.00;99091.69;5012111;28;20676;-69
2022/09/02 01:35:38;;;;;;;19.97;14.17;;;;;;;23.94;100.00;99087.81;5011769;28;20207;-69
2022/09/02 01:38:05;;;;;;;15.77;14.10;;;;;;;23.96;100.00;99091.06;5012424;28;20196;-69
2022/09/02 01:40:34;;;;;;;16.53;14.97;;;;;;;23.72;100.00;99079.44;5013074;28;20639;-69
2022/09/02 01:43:06;;;;;;;17.30;15.60;;;;;;;23.80;100.00;99083.38;5012043;28;20256;-68
2022/09/02 01:45:34;;;;;;;18.83;16.17;;;;;;;23.90;100.00;99081.38;5012867;28;20192;-69
2022/09/02 01:48:01;;;;;;;19.40;16.13;;;;;;;24.01;100.00;99092.94;5012145;28;20208;-69
2022/09/02 01:50:28;;;;;;;20.53;15.70;;;;;;;24.05;100.00;99091.25;5011868;28;20200;-69
2022/09/02 01:52:55;;;;;;;14.87;13.37;;;;;;;24.02;100.00;99092.59;5012759;28;20195;-69
2022/09/02 01:55:22;;;;;;;13.90;12.53;;;;;;;23.74;100.00;99088.09;5012287;28;20291;-69
2022/09/02 01:57:50;;;;;;;15.43;13.67;;;;;;;23.85;100.00;99073.28;5011590;28;20266;-69
2022/09/02 02:00:17;;;;;;;17.10;11.97;;;;;;;23.91;100.00;99085.72;5012444;28;20669;-69
2022/09/02 02:02:44;;;;;;;13.90;12.50;;;;;;;23.95;100.00;99081.31;5012427;28;20203;-69
2022/09/02 02:05:12;;;;;;;14.37;11.77;;;;;;;23.99;100.00;99076.94;5012447;28;20251;-69
2022/09/02 02:07:39;;;;;;;14.23;11.63;;;;;;;24.00;100.00;99086.69;5012009;28;20196;-69
2022/09/02 02:10:09;;;;;;;12.33;10.37;;;;;;;23.86;100.00;99083.06;5011985;28;20657;-69
2022/09/02 02:12:36;;;;;;;12.27;11.07;;;;;;;23.85;100.00;99084.13;5011996;28;20682;-69
2022/09/02 02:15:06;;;;;;;12.80;10.37;;;;;;;23.89;100.00;99085.16;5012087;28;20201;-69
2022/09/02 02:17:33;;;;;;;18.67;10.93;;;;;;;23.93;100.00;99091.66;5011962;28;20196;-69
2022/09/02 02:20:00;;;;;;;12.43;11.10;;;;;;;23.97;100.00;99087.25;5012281;28;20202;-70
2022/09/02 02:22:27;;;;;;;14.53;13.00;;;;;;;23.84;100.00;99093.38;5012222;28;20200;-69
2022/09/02 02:24:54;;;;;;;15.33;12.60;;;;;;;23.81;100.00;99091.22;5012322;28;20291;-70
2022/09/02 02:27:21;;;;;;;17.70;13.63;;;;;;;23.80;100.00;99084.19;5011551;28;20201;-69
2022/09/02 02:29:47;;;;;;;18.40;12.00;;;;;;;23.73;100.00;99080.25;5012275;28;20244;-68
2022/09/02 02:32:17;;;;;;;13.20;11.90;;;;;;;23.69;100.00;99088.13;5012054;28;20197;-68
2022/09/02 02:34:44;;;;;;;12.90;11.63;;;;;;;23.69;100.00;99082.72;5011913;28;20197;-69
2022/09/02 02:37:11;;;;;;;12.37;11.20;;;;;;;23.67;100.00;99084.91;5012168;28;20201;-69
2022/09/02 02:39:38;;;;;;;15.27;11.13;;;;;;;23.49;100.00;99085.66;5011961;28;20204;-69
2022/09/02 02:42:06;;;;;;;12.73;11.40;;;;;;;23.53;100.00;99085.91;5012118;28;20203;-69
2022/09/02 02:44:33;;;;;;;12.07;10.73;;;;;;;23.50;100.00;99092.72;5012282;28;20191;-69
2022/09/02 02:47:00;;;;;;;11.03;10.07;;;;;;;23.58;100.00;99075.81;5012041;28;20191;-69
2022/09/02 02:49:28;;;;;;;12.90;11.77;;;;;;;23.59;100.00;99072.00;5011883;28;20220;-68
2022/09/02 02:51:55;;;;;;;13.03;10.23;;;;;;;23.41;100.00;99077.38;5011753;28;20253;-69
2022/09/02 02:54:22;;;;;;;13.10;10.30;;;;;;;23.39;100.00;99064.13;5011652;28;20198;-69
2022/09/02 02:56:49;;;;;;;12.17;10.80;;;;;;;23.31;100.00;99066.66;5012030;28;20207;-69
2022/09/02 02:59:16;;;;;;;13.33;10.53;;;;;;;23.41;100.00;99072.78;5011776;28;20697;-68
2022/09/02 03:01:42;;;;;;;13.90;10.67;;;;;;;23.42;100.00;99068.97;5013847;28;20196;-69
2022/09/02 03:04:09;;;;;;;10.50;9.60;;;;;;;23.44;100.00;99074.88;5015527;28;20254;-69
2022/09/02 03:06:37;;;;;;;10.47;9.37;;;;;;;23.29;100.00;99074.28;5015385;28;20604;-69
2022/09/02 03:09:04;;;;;;;11.53;10.20;;;;;;;23.37;100.00;99070.94;5015050;28;20645;-68
2022/09/02 03:11:31;;;;;;;11.63;10.20;;;;;;;23.28;100.00;99070.75;5015085;28;20203;-69
2022/09/02 03:13:58;;;;;;;12.73;10.13;;;;;;;23.26;100.00;99062.09;5015264;28;20194;-69
2022/09/02 03:16:26;;;;;;;12.10;10.70;;;;;;;23.29;100.00;99072.38;5015025;28;20195;-68
2022/09/02 03:18:53;;;;;;;10.00;9.23;;;;;;;23.30;100.00;99068.56;5013696;28;20207;-69
2022/09/02 03:21:20;;;;;;;11.67;9.90;;;;;;;23.28;100.00;99073.44;4995353;28;20195;-70
2022/09/02 03:23:48;;;;;;;16.63;13.27;;;;;;;23.22;100.00;99068.38;4995221;28;20241;-70
2022/09/02 03:26:17;;;;;;;13.13;11.73;;;;;;;23.13;100.00;99070.91;4995620;28;20195;-70
2022/09/02 03:28:44;;;;;;;14.27;12.27;;;;;;;23.23;100.00;99076.22;4995447;28;20254;-70
2022/09/02 03:31:16;;;;;;;17.73;14.57;;;;;;;23.10;100.00;99071.47;4995342;28;20255;-69
2022/09/02 03:33:43;;;;;;;16.00;12.93;;;;;;;23.24;100.00;99069.69;4995535;28;20256;-70
2022/09/02 03:36:20;;;;;;;11.47;10.30;;;;;;;23.28;100.00;99068.03;4995280;28;20207;-69
2022/09/02 03:38:48;;;;;;;11.47;10.43;;;;;;;23.23;100.00;99070.03;4995047;28;20198;-69
2022/09/02 03:41:15;;;;;;;11.63;10.43;;;;;;;23.26;100.00;99075.66;4995027;28;20726;-68
2022/09/02 03:43:41;;;;;;;12.67;10.10;;;;;;;23.24;100.00;99067.00;4994889;28;20196;-69
2022/09/02 03:46:08;;;;;;;12.17;10.40;;;;;;;23.26;100.00;99072.94;4995193;28;20201;-68
2022/09/02 03:48:36;;;;;;;16.27;10.17;;;;;;;23.10;100.00;99076.88;4995055;28;20195;-68
2022/09/02 03:51:03;;;;;;;14.00;11.00;;;;;;;23.11;100.00;99067.66;4994820;28;20249;-68
2022/09/02 03:53:29;;;;;;;11.10;9.93;;;;;;;23.21;100.00;99075.72;4994725;28;20250;-68
2022/09/02 03:55:58;;;;;;;12.83;9.90;;;;;;;23.22;100.00;99080.03;4995135;28;20196;-68
2022/09/02 03:58:25;;;;;;;12.90;9.87;;;;;;;23.20;100.00;99084.91;4994972;28;20196;-68
2022/09/02 04:00:53;;;;;;;11.97;9.97;;;;;;;23.30;100.00;99086.72;4994884;28;20230;-68
2022/09/02 04:03:20;;;;;;;13.63;9.93;;;;;;;23.31;100.00;99088.31;4994933;28;20203;-67
2022/09/02 04:05:49;;;;;;;13.20;10.90;;;;;;;23.39;100.00;99090.41;4994939;28;20263;-67
2022/09/02 04:08:15;;;;;;;14.10;10.77;;;;;;;23.24;100.00;99101.44;4994426;28;20207;-67
2022/09/02 04:10:42;;;;;;;11.80;10.73;;;;;;;23.16;100.00;99097.41;4994577;28;20223;-67
2022/09/02 04:13:11;;;;;;;11.40;10.40;;;;;;;23.25;100.00;99106.56;4993481;28;20663;-68
2022/09/02 04:15:41;;;;;;;12.33;10.03;;;;;;;23.23;100.00;99097.13;4994676;28;20205;-68
2022/09/02 04:18:08;;;;;;;14.57;10.80;;;;;;;23.28;100.00;99095.13;4994428;28;20279;-68
2022/09/02 04:20:37;;;;;;;13.27;10.80;;;;;;;23.18;100.00;99099.81;5007581;28;20254;-68
2022/09/02 04:23:04;;;;;;;11.00;10.03;;;;;;;23.29;100.00;99104.09;5013690;28;20736;-69
2022/09/02 04:25:32;;;;;;;14.07;10.03;;;;;;;23.40;100.00;99102.88;5013587;28;20634;-68
2022/09/02 04:27:59;;;;;;;12.27;10.60;;;;;;;23.35;100.00;99109.16;5013844;28;20198;-69
2022/09/02 04:30:27;;;;;;;18.50;10.70;;;;;;;23.44;100.00;99104.72;5012548;28;20243;-69
2022/09/02 04:32:56;;;;;;;11.10;10.00;;;;;;;23.48;100.00;99110.38;5013588;28;20197;-68
2022/09/02 04:35:23;;;;;;;13.47;9.90;;;;;;;23.46;100.00;99124.22;5013804;28;20196;-68
2022/09/02 04:37:50;;;;;;;19.73;10.23;;;;;;;23.35;100.00;99121.91;5012261;28;20203;-66
2022/09/02 04:40:17;;;;;;;11.47;10.37;;;;;;;23.30;100.00;99120.06;5013318;28;20248;-67
2022/09/02 04:42:43;;;;;;;13.90;10.13;;;;;;;23.26;100.00;99129.88;5013619;28;20556;-66
2022/09/02 04:45:10;;;;;;;15.43;10.30;;;;;;;23.15;100.00;99122.09;5013194;28;20383;-66
2022/09/02 04:47:38;;;;;;;14.90;10.73;;;;;;;23.23;100.00;99124.22;5013780;28;20208;-66
2022/09/02 04:50:06;;;;;;;13.77;10.70;;;;;;;23.24;100.00;99121.19;5012869;28;20228;-67
2022/09/02 04:52:33;;;;;;;12.27;10.27;;;;;;;23.17;100.00;99131.56;5013176;28;20252;-67
2022/09/02 04:55:00;;;;;;;15.33;10.87;;;;;;;23.24;100.00;99120.41;5012929;28;20615;-65
2022/09/02 04:57:26;;;;;;;16.53;11.40;;;;;;;23.27;100.00;99134.19;5013199;28;20617;-66
2022/09/02 04:59:53;;;;;;;13.33;10.83;;;;;;;23.30;100.00;99140.94;5013401;28;20260;-66
2022/09/02 05:02:20;;;;;;;12.80;11.13;;;;;;;23.38;100.00;99132.19;5013069;28;20209;-66
2022/09/02 05:04:48;;;;;;;12.30;11.03;;;;;;;23.43;100.00;99132.94;5012941;28;20258;-66
2022/09/02 05:07:15;;;;;;;12.50;11.33;;;;;;;23.35;100.00;99138.97;5013033;28;20203;-66
2022/09/02 05:09:42;;;;;;;13.90;11.30;;;;;;;23.33;100.00;99141.19;5012743;28;20707;-66
2022/09/02 05:12:10;;;;;;;13.03;11.87;;;;;;;23.38;100.00;99134.88;5013161;28;20290;-66
2022/09/02 05:14:37;;;;;;;12.00;10.87;;;;;;;23.36;100.00;99140.59;5012877;28;20289;-66
2022/09/02 05:17:04;;;;;;;18.57;11.60;;;;;;;23.23;100.00;99130.44;5012810;28;20675;-66
2022/09/02 05:19:31;;;;;;;18.20;12.00;;;;;;;23.17;100.00;99128.84;5012750;28;20198;-66
2022/09/02 05:22:00;;;;;;;13.53;12.10;;;;;;;23.28;100.00;99127.66;5012966;28;20194;-66
2022/09/02 05:24:28;;;;;;;14.23;12.73;;;;;;;23.26;100.00;99124.44;5012889;28;20283;-66
2022/09/02 05:26:55;;;;;;;16.63;13.70;;;;;;;23.35;100.00;99128.13;5013096;28;20202;-66
2022/09/02 05:29:22;;;;;;;18.80;15.50;;;;;;;23.29;100.00;99123.88;5012355;28;20235;-66
2022/09/02 05:31:49;;;;;;;16.73;14.10;;;;;;;23.33;100.00;99124.91;5012464;28;20288;-66
2022/09/02 05:34:17;;;;;;;14.73;13.30;;;;;;;23.39;100.00;99123.75;5012426;28;20697;-66
2022/09/02 05:36:44;;;;;;;17.80;13.43;;;;;;;23.49;100.00;99129.06;5012513;28;20196;-66
2022/09/02 05:39:12;;;;;;;18.60;13.30;;;;;;;23.54;100.00;99137.16;5012770;28;20261;-66
2022/09/02 05:41:39;;;;;;;15.20;13.57;;;;;;;23.58;100.00;99127.34;5012419;28;20200;-66
2022/09/02 05:44:06;;;;;;;16.17;13.83;;;;;;;23.72;100.00;99122.81;5012718;28;20201;-66
2022/09/02 05:46:34;;;;;;;15.90;14.03;;;;;;;23.75;100.00;99132.28;5012290;28;20262;-66
2022/09/02 05:49:07;;;;;;;17.53;14.07;;;;;;;23.71;100.00;99117.69;5012321;28;20626;-66
2022/09/02 05:51:40;;;;;;;18.23;14.80;;;;;;;23.80;100.00;99118.66;5012986;28;20219;-66
2022/09/02 05:54:08;;;;;;;16.57;13.97;;;;;;;23.86;100.00;99112.06;5012621;28;20714;-66
2022/09/02 05:56:37;;;;;;;16.07;14.27;;;;;;;23.68;100.00;99119.06;5012340;28;20250;-66
2022/09/02 05:59:06;;;;;;;17.83;14.13;;;;;;;23.82;100.00;99116.47;5012194;28;20199;-66
2022/09/02 06:01:33;;;;;;;15.20;13.53;;;;;;;23.90;100.00;99119.34;5012826;28;20211;-66
2022/09/02 06:04:01;;;;;;;24.33;13.93;;;;;;;23.92;100.00;99117.19;5012194;28;20244;-67
2022/09/02 06:06:28;;;;;;;20.93;14.20;;;;;;;23.96;99.88;99126.34;5012376;28;20676;-66
2022/09/02 06:08:55;;;;;;;14.83;13.40;;;;;;;23.92;99.62;99121.78;5012323;28;20578;-66
2022/09/02 06:11:22;;;;;;;17.57;13.83;;;;;;;24.04;99.62;99125.69;5011792;28;20326;-67
2022/09/02 06:13:51;;;;;;;17.17;13.17;;;;;;;24.05;99.19;99126.53;5012210;28;20203;-66
2022/09/02 06:16:21;;;;;;;16.80;13.87;;;;;;;24.16;98.62;99136.13;5012612;28;20200;-66
2022/09/02 06:18:48;;;;;;;22.93;14.20;;;;;;;24.22;98.35;99134.97;5012257;28;20195;-66
2022/09/02 06:21:16;;;;;;;17.60;15.00;;;;;;;24.26;97.87;99128.63;5012067;28;20205;-66
2022/09/02 06:23:43;;;;;;;22.17;14.87;;;;;;;24.16;98.98;99125.25;5012475;28;20204;-66
2022/09/02 06:26:12;;;;;;;27.13;14.80;;;;;;;24.12;99.15;99127.75;5012077;28;20207;-66
2022/09/02 06:28:38;;;;;;;15.20;13.20;;;;;;;24.29;98.60;99128.06;5011919;28;20200;-66
2022/09/02 06:31:11;;;;;;;17.73;13.40;;;;;;;24.33;97.15;99129.09;5010731;28;20231;-66
2022/09/02 06:33:38;;;;;;;19.87;15.43;;;;;;;24.22;98.05;99133.03;5012136;28;20236;-66
2022/09/02 06:36:07;;;;;;;15.90;14.30;;;;;;;24.22;98.01;99130.31;5013444;28;20605;-66
2022/09/02 06:38:37;;;;;;;21.00;13.43;;;;;;;24.15;98.71;99127.19;5016180;28;20216;-69
2022/09/02 06:41:05;;;;;;;15.17;13.07;;;;;;;24.32;97.69;99132.09;5011219;28;20223;-72
2022/09/02 06:43:32;;;;;;;14.80;13.40;;;;;;;24.37;97.13;99119.25;5011167;28;20691;-70
2022/09/02 06:45:58;;;;;;;14.27;12.70;;;;;;;24.36;96.62;99105.97;5010884;28;20303;-71
2022/09/02 06:48:27;;;;;;;14.70;12.03;;;;;;;24.61;96.32;99130.88;5010794;28;20627;-69
2022/09/02 06:50:54;;;;;;;19.13;12.57;;;;;;;24.74;94.82;99137.44;5010769;28;20656;-69
2022/09/02 06:53:21;;;;;;;16.87;13.23;;;;;;;24.49;94.95;99133.19;5010993;28;20228;-69
2022/09/02 06:55:48;;;;;;;13.43;11.83;;;;;;;24.65;94.86;99123.72;5010661;28;20208;-68
2022/09/02 06:58:16;;;;;;;14.13;12.40;;;;;;;24.85;92.97;99115.25;5010783;28;20256;-69
2022/09/02 07:00:43;;;;;;;17.40;13.00;;;;;;;25.13;91.97;99134.31;5010467;28;20683;-69
2022/09/02 07:06:08;;;;;;;12.00;10.80;;;;;;;24.96;92.03;99141.13;5010670;28;20259;-66
2022/09/02 07:08:35;;;;;;;12.73;11.30;;;;;;;24.85;92.99;99142.44;5010730;28;20197;-67
2022/09/02 07:11:02;;;;;;;13.07;10.40;;;;;;;24.91;92.39;99135.78;5010354;28;20234;-69
2022/09/02 07:13:30;;;;;;;11.00;9.83;;;;;;;25.11;91.44;99145.50;5010770;28;20255;-70
2022/09/02 07:15:59;;;;;;;10.73;9.73;;;;;;;25.17;90.62;99148.94;5005226;28;20201;-70
2022/09/02 07:18:26;;;;;;;10.10;9.07;;;;;;;25.38;89.68;99161.91;5007805;28;20227;-69
2022/09/02 07:20:54;;;;;;;11.17;9.50;;;;;;;25.51;88.94;99160.31;5010398;28;20255;-68
2022/09/02 07:23:22;;;;;;;20.20;10.50;;;;;;;25.38;88.53;99166.53;5010226;28;20637;-66
2022/09/02 07:25:49;;;;;;;13.27;10.67;;;;;;;25.52;88.61;99170.09;5010344;28;20206;-66
2022/09/02 07:28:16;;;;;;;11.43;9.83;;;;;;;25.58;88.13;99155.28;5009434;28;20197;-65
2022/09/02 07:30:44;;;;;;;9.80;9.10;;;;;;;25.62;88.04;99161.72;5009194;28;20355;-65
2022/09/02 07:33:13;;;;;;;10.43;9.43;;;;;;;25.65;87.34;99172.00;5010209;28;20207;-66
2022/09/02 07:35:42;;;;;;;11.07;10.07;;;;;;;25.76;87.11;99173.44;5009730;28;20236;-66
2022/09/02 07:38:10;;;;;;;10.80;9.63;;;;;;;25.78;86.61;99171.19;5006777;28;20233;-66
2022/09/02 07:40:39;;;;;;;12.13;9.30;;;;;;;25.88;86.63;99173.72;5009791;28;20202;-66
2022/09/02 07:43:09;;;;;;;16.80;10.33;;;;;;;25.66;87.27;99169.00;5009547;28;20239;-66
2022/09/02 07:45:37;;;;;;;10.07;9.30;;;;;;;25.76;86.92;99168.00;5009849;28;20194;-66
2022/09/02 07:48:06;;;;;;;10.10;9.20;;;;;;;25.96;86.03;99167.63;5008408;28;20692;-66
2022/09/02 07:50:33;;;;;;;9.87;8.83;;;;;;;26.12;85.38;99168.88;5009857;28;20214;-65
2022/09/02 07:53:01;;;;;;;10.27;8.80;;;;;;;26.26;84.77;99164.22;5009586;28;20591;-67
2022/09/02 07:55:29;;;;;;;13.50;9.33;;;;;;;26.45;84.34;99173.06;5009829;28;20198;-65
2022/09/02 07:57:57;;;;;;;11.53;8.47;;;;;;;26.68;83.52;99177.47;5009475;28;20204;-71
2022/09/02 08:00:26;;;;;;;10.30;9.37;;;;;;;26.86;81.55;99174.56;5009744;28;20202;-76
2022/09/02 08:02:53;;;;;;;10.10;9.23;;;;;;;27.01;81.12;99178.81;5008946;28;20197;-74
2022/09/02 08:05:21;;;;;;;17.03;9.03;;;;;;;27.16;80.75;99181.19;5009108;28;20663;-72
2022/09/02 08:07:49;;;;;;;9.70;9.00;;;;;;;27.32;80.03;99179.72;5009714;28;20256;-72
2022/09/02 08:10:16;;;;;;;14.73;9.33;;;;;;;27.37;79.13;99183.13;5009706;28;20230;-73
2022/09/02 08:12:45;;;;;;;10.57;8.40;;;;;;;27.40;79.24;99187.13;5009050;28;20309;-72
2022/09/02 08:15:14;;;;;;;10.23;8.37;;;;;;;27.49;78.21;99182.53;5009243;28;20201;-70
2022/09/02 08:17:42;;;;;;;12.40;9.00;;;;;;;27.57;78.44;99173.56;5008336;28;20908;-70
2022/09/02 08:20:11;;;;;;;13.50;9.63;;;;;;;27.63;77.90;99172.31;5008792;28;20206;-71
2022/09/02 08:22:38;;;;;;;9.37;8.67;;;;;;;27.69;77.91;99174.56;5009194;28;20206;-73
2022/09/02 08:25:06;;;;;;;10.10;9.17;;;;;;;27.79;77.43;99173.50;5009007;28;20226;-72
2022/09/02 08:27:38;;;;;;;10.37;9.40;;;;;;;27.86;77.37;99158.31;5009064;28;20202;-72
2022/09/02 08:30:09;;;;;;;10.00;9.13;;;;;;;28.02;76.38;99180.50;5008927;28;20229;-72
2022/09/02 08:32:38;;;;;;;18.87;10.97;;;;;;;28.02;75.59;99177.78;5008930;28;20289;-73
2022/09/02 08:35:07;;;;;;;11.77;10.83;;;;;;;27.98;74.99;99172.13;5009229;28;20194;-70
2022/09/02 08:37:36;;;;;;;16.43;12.23;;;;;;;27.65;74.54;99167.34;5007145;28;20210;-71
2022/09/02 08:40:05;;;;;;;20.07;13.43;;;;;;;27.47;74.95;99160.19;5009394;28;20210;-71
2022/09/02 08:42:41;;;;;;;19.37;11.50;;;;;;;27.29;75.57;99164.78;5009007;28;20206;-70
2022/09/02 08:45:12;;;;;;;14.43;12.73;;;;;;;27.02;76.20;99153.16;5008731;28;20196;-71
2022/09/02 08:47:46;;;;;;;31.17;13.87;;;;;;;27.04;76.43;99145.50;5008195;28;20244;-71
2022/09/02 08:50:15;;;;;;;15.77;12.83;;;;;;;27.05;76.79;99141.63;5008664;28;20652;-70
2022/09/02 08:52:49;;;;;;;18.83;12.73;;;;;;;26.76;77.43;99138.56;5008792;28;20208;-70
2022/09/02 08:55:21;;;;;;;16.47;13.37;;;;;;;26.59;78.55;99143.88;5008787;28;20244;-70
2022/09/02 08:57:48;;;;;;;18.57;14.13;;;;;;;26.42;79.25;99135.53;5008836;28;20187;-70
2022/09/02 09:00:16;;;;;;;29.50;14.47;;;;;;;26.33;80.14;99140.13;5008049;28;20747;-70
2022/09/02 09:02:57;;;;;;;34.00;15.80;;;;;;;26.37;82.02;99152.78;5008388;28;20198;-68
2022/09/02 09:05:36;;;;;;;21.00;15.30;;;;;;;26.52;83.06;99148.91;5008356;28;20195;-68
2022/09/02 09:08:12;;;;;;;18.87;14.57;;;;;;;26.40;83.39;99145.94;5008099;28;20248;-67
2022/09/02 09:10:55;;;;;;;16.43;14.70;;;;;;;26.31;83.66;99147.78;5008258;28;20251;-70
2022/09/02 09:13:44;;;;;;;18.80;15.27;;;;;;;26.17;86.36;99138.84;5008290;28;20646;-71
2022/09/02 09:16:19;;;;;;;45.80;19.23;;;;;;;26.13;88.42;99135.13;5008487;28;20233;-66
2022/09/02 09:18:56;;;;;;;30.40;20.33;;;;;;;26.05;91.19;99130.41;5007204;28;20296;-67
2022/09/02 09:22:04;;;;;;;24.00;17.00;;;;;;;25.99;90.06;99128.88;5007953;28;20205;-72
2022/09/02 09:27:22;;;;;;;23.63;17.37;;;;;;;25.90;91.22;99152.44;5113255;22;20683;-69
2022/09/02 09:29:49;;;;;;;28.10;19.77;;;;;;;25.80;92.63;99163.56;4998070;28;20194;-71
2022/09/02 09:32:24;;;;;;;28.03;18.43;;;;;;;25.61;94.10;99160.94;4999420;28;20226;-68
2022/09/02 09:35:00;;;;;;;19.80;17.77;;;;;;;25.56;94.80;99157.50;4997005;28;20202;-68
2022/09/02 09:37:36;;;;;;;20.70;17.90;;;;;;;25.56;94.56;99152.06;4998480;28;20213;-69
2022/09/02 09:40:26;;;;;;;22.13;16.20;;;;;;;25.27;95.55;99143.34;4997714;28;20224;-68
2022/09/02 09:42:56;;;;;;;13.53;12.13;;;;;;;24.58;95.82;99144.16;4998252;28;20206;-70
2022/09/02 09:45:30;;;;;;;16.60;12.27;;;;;;;24.41;96.37;99128.41;4997644;28;20207;-70
2022/09/02 09:48:21;;;;;;;18.00;13.73;;;;;;;24.08;95.31;99132.16;5000160;28;20206;-70
2022/09/02 09:51:10;;;;;;;13.10;10.57;;;;;;;23.78;93.49;99127.09;4994461;28;20669;-70
2022/09/02 09:53:38;;;;;;;9.93;8.93;;;;;;;23.69;95.83;99126.09;4998084;28;20196;-72
2022/09/02 09:56:07;;;;;;;8.37;7.87;;;;;;;23.57;92.43;99136.56;4996724;28;20774;-69
2022/09/02 09:58:42;;;;;;;11.50;10.30;;;;;;;23.70;93.27;99133.16;4994612;28;20585;-69
2022/09/02 10:01:12;;;;;;;17.30;11.40;;;;;;;23.99;96.14;99128.50;4990211;28;21534;-72
2022/09/02 10:03:42;;;;;;;17.03;11.17;;;;;;;24.17;95.53;99133.13;4996651;28;20692;-71
2022/09/02 10:06:21;;;;;;;11.70;10.43;;;;;;;24.37;95.80;99124.69;5001839;28;20250;-69
2022/09/02 10:08:52;;;;;;;20.97;12.50;;;;;;;24.66;93.03;99127.25;4995108;28;20516;-69
2022/09/02 10:11:23;;;;;;;18.63;10.33;;;;;;;24.75;93.11;99120.84;4998709;28;20228;-69
2022/09/02 10:13:50;;;;;;;10.53;9.43;;;;;;;24.93;92.31;99128.16;4995093;28;20194;-69
2022/09/02 10:16:37;;;;;;;10.37;9.27;;;;;;;25.10;90.53;99133.00;4995822;28;20205;-70
2022/09/02 10:19:17;;;;;;;10.63;8.67;;;;;;;25.23;89.96;99159.41;4989292;28;20194;-71
2022/09/02 10:22:13;;;;;;;9.20;7.90;;;;;;;25.17;90.45;99170.69;4997339;28;20275;-69
2022/09/02 10:24:57;;;;;;;10.53;8.43;;;;;;;25.16;91.97;99169.91;4997269;28;20194;-70
2022/09/02 10:27:35;;;;;;;8.50;7.80;;;;;;;25.31;91.01;99171.56;4993391;28;20265;-69
2022/09/02 10:30:06;;;;;;;8.70;7.43;;;;;;;25.46;90.47;99165.84;4996587;28;20198;-69
2022/09/02 10:32:58;;;;;;;8.93;7.20;;;;;;;25.64;89.48;99159.53;4999213;28;20221;-69
2022/09/02 10:35:35;;;;;;;8.83;8.10;;;;;;;25.84;87.65;99161.84;4999820;28;20260;-68
2022/09/02 10:38:14;;;;;;;12.27;6.87;;;;;;;26.01;87.49;99168.28;4995964;28;20661;-70
2022/09/02 10:40:45;;;;;;;7.97;7.30;;;;;;;26.19;89.17;99161.13;5000535;28;21085;-68
2022/09/02 10:43:27;;;;;;;7.53;6.60;;;;;;;26.38;87.24;99154.41;4990808;28;20245;-69
2022/09/02 10:45:59;;;;;;;7.50;6.80;;;;;;;26.63;85.20;99161.22;4994729;28;20186;-70
2022/09/02 10:48:39;;;;;;;6.17;5.87;;;;;;;26.80;83.47;99156.72;4988717;28;20249;-68
2022/09/02 10:51:13;;;;;;;7.93;7.03;;;;;;;26.86;82.71;99165.59;4994583;28;20210;-68
2022/09/02 10:53:58;;;;;;;13.43;10.73;;;;;;;26.83;82.72;99183.34;4997213;28;20189;-71
2022/09/02 10:56:30;;;;;;;8.27;7.63;;;;;;;26.70;83.01;99177.97;4998267;28;20198;-70
2022/09/02 10:59:04;;;;;;;8.73;7.93;;;;;;;26.65;84.39;99176.16;4995983;28;20575;-68
2022/09/02 11:01:35;;;;;;;10.10;7.00;;;;;;;26.78;84.18;99158.94;4996482;28;20218;-73
2022/09/02 11:04:08;;;;;;;14.97;6.90;;;;;;;27.02;83.38;99155.91;4999694;28;20192;-68
2022/09/02 11:06:38;;;;;;;7.33;6.63;;;;;;;27.24;82.15;99147.72;5003821;28;20633;-67
2022/09/02 11:09:12;;;;;;;10.87;7.50;;;;;;;27.47;80.47;99149.28;4995801;28;20278;-72
2022/09/02 11:11:42;;;;;;;10.83;8.60;;;;;;;27.55;80.93;99162.16;5002502;28;20210;-67
2022/09/02 11:14:17;;;;;;;9.03;8.17;;;;;;;27.40;80.23;99170.78;4996302;28;20203;-71
2022/09/02 11:16:50;;;;;;;8.97;8.23;;;;;;;27.32;80.14;99182.44;4990122;28;20206;-71
2022/09/02 11:19:23;;;;;;;7.70;7.10;;;;;;;27.22;81.28;99182.69;4988898;28;20269;-67
2022/09/02 11:21:55;;;;;;;8.07;7.27;;;;;;;27.20;80.26;99193.13;4997210;28;20265;-68
2022/09/02 11:24:30;;;;;;;10.67;7.37;;;;;;;27.20;80.87;99188.44;5004589;28;20202;-68
2022/09/02 11:27:07;;;;;;;12.37;9.83;;;;;;;27.20;80.32;99198.56;4992930;28;20656;-69
2022/09/02 11:29:41;;;;;;;13.47;10.80;;;;;;;27.11;80.05;99189.50;5002094;28;20198;-76
2022/09/02 11:32:17;;;;;;;9.80;8.97;;;;;;;26.89;81.09;99175.84;4992022;28;20231;-68
2022/09/02 11:34:46;;;;;;;8.97;7.60;;;;;;;26.88;82.10;99160.63;4993097;28;20205;-68